Time;durP1;ratioP1;P1;durP2;ratioP2;P2;SDS_P1;SDS_P2;PMS_P1;PMS_P2;Temp;Humidity;BMP_temperature;BMP_pressure;BME280_temperature;BME280_humidity;BME280_pressure;Samples;Min_cycle;Max_cycle;Signal;HPM_P1;HPM_P2
2023/04/17 00:00:09;;;;;;;0.40;0.40;;;16.80;74.90;;;;;;5033798;28;20029;-68
2023/04/17 00:02:38;;;;;;;0.82;0.50;;;16.70;75.10;;;;;;5033732;28;20026;-68
2023/04/17 00:05:05;;;;;;;1.20;0.50;;;16.80;75.30;;;;;;5032902;28;20068;-68
2023/04/17 00:07:33;;;;;;;1.40;0.57;;;16.80;75.20;;;;;;5032784;28;20022;-68
2023/04/17 00:09:58;;;;;;;0.50;0.50;;;16.80;75.30;;;;;;5016389;28;20014;-68
2023/04/17 00:12:24;;;;;;;0.85;0.30;;;16.80;75.50;;;;;;5032537;28;20075;-68
2023/04/17 00:14:50;;;;;;;1.27;0.50;;;16.80;75.40;;;;;;5033499;28;20025;-68
2023/04/17 00:17:15;;;;;;;0.40;0.38;;;16.80;75.60;;;;;;5033602;28;20476;-68
2023/04/17 00:19:41;;;;;;;0.93;0.35;;;16.80;75.50;;;;;;5033624;28;20026;-68
2023/04/17 00:22:06;;;;;;;0.95;0.22;;;16.80;75.60;;;;;;5032046;28;20060;-68
2023/04/17 00:24:32;;;;;;;2.13;0.50;;;16.80;75.50;;;;;;5033582;28;20088;-68
2023/04/17 00:26:58;;;;;;;0.50;0.30;;;16.80;75.60;;;;;;5032188;28;20426;-68
2023/04/17 00:29:23;;;;;;;1.33;0.43;;;16.80;75.60;;;;;;5033439;28;20445;-68
2023/04/17 00:31:49;;;;;;;1.48;0.30;;;16.70;75.60;;;;;;5033255;28;20022;-68
2023/04/17 00:34:15;;;;;;;0.38;0.38;;;16.70;75.70;;;;;;5033267;28;20376;-68
2023/04/17 00:36:40;;;;;;;0.50;0.40;;;16.70;75.70;;;;;;5032858;28;20029;-68
2023/04/17 00:39:06;;;;;;;0.52;0.52;;;16.70;75.70;;;;;;5031777;28;20514;-68
2023/04/17 00:41:31;;;;;;;0.40;0.40;;;16.80;75.80;;;;;;5031909;28;20030;-68
2023/04/17 00:43:57;;;;;;;0.70;0.50;;;16.70;75.70;;;;;;5032767;28;20053;-68
2023/04/17 00:46:23;;;;;;;0.57;0.57;;;16.70;75.80;;;;;;5033078;28;20060;-68
2023/04/17 00:48:48;;;;;;;0.70;0.40;;;16.70;75.70;;;;;;5031675;28;20563;-68
2023/04/17 00:51:14;;;;;;;0.90;0.40;;;16.70;75.80;;;;;;5031357;28;20109;-68
2023/04/17 00:53:39;;;;;;;0.70;0.47;;;16.70;75.70;;;;;;5015539;28;20040;-68
2023/04/17 00:56:05;;;;;;;0.40;0.40;;;16.70;75.90;;;;;;5031628;28;20463;-68
2023/04/17 00:58:32;;;;;;;0.50;0.40;;;16.70;75.90;;;;;;5031800;28;20031;-68
2023/04/17 01:00:58;;;;;;;0.98;0.30;;;16.70;75.90;;;;;;5015152;28;20029;-68
2023/04/17 01:03:24;;;;;;;2.08;0.50;;;16.70;76.00;;;;;;5031517;28;20029;-68
2023/04/17 01:05:50;;;;;;;0.75;0.50;;;16.70;75.90;;;;;;5031403;28;20025;-68
2023/04/17 01:08:16;;;;;;;0.60;0.50;;;16.70;76.00;;;;;;5031314;28;20033;-68
2023/04/17 01:10:42;;;;;;;0.22;0.22;;;16.70;76.00;;;;;;5031474;28;20448;-68
2023/04/17 01:13:08;;;;;;;1.05;0.40;;;16.70;76.00;;;;;;5031561;28;20057;-68
2023/04/17 01:15:34;;;;;;;0.52;0.50;;;16.70;76.10;;;;;;5015101;28;20495;-68
2023/04/17 01:18:00;;;;;;;2.25;0.40;;;16.70;76.10;;;;;;5014657;28;20074;-68
2023/04/17 01:20:29;;;;;;;0.65;0.30;;;16.70;76.00;;;;;;5031344;28;20108;-68
2023/04/17 01:22:57;;;;;;;0.40;0.30;;;16.70;76.00;;;;;;5015331;28;20116;-68
2023/04/17 01:25:23;;;;;;;0.40;0.40;;;16.70;76.00;;;;;;5014939;28;20427;-68
2023/04/17 01:27:48;;;;;;;0.40;0.40;;;16.70;76.00;;;;;;5031272;28;20037;-68
2023/04/17 01:30:14;;;;;;;0.28;0.28;;;16.70;76.10;;;;;;5015010;28;20017;-68
2023/04/17 01:32:40;;;;;;;0.70;0.40;;;16.70;76.00;;;;;;5032254;28;20071;-68
2023/04/17 01:35:06;;;;;;;0.50;0.50;;;16.70;76.10;;;;;;5032202;28;20029;-68
2023/04/17 01:37:31;;;;;;;0.45;0.30;;;16.70;76.00;;;;;;5032541;28;20507;-68
2023/04/17 01:39:58;;;;;;;0.65;0.47;;;16.70;76.00;;;;;;5031140;28;20438;-68
2023/04/17 01:42:23;;;;;;;1.42;0.40;;;16.70;76.00;;;;;;5030782;28;20033;-68
2023/04/17 01:44:49;;;;;;;0.40;0.40;;;16.70;76.10;;;;;;5031103;28;20404;-68
2023/04/17 01:47:15;;;;;;;0.50;0.40;;;16.70;76.10;;;;;;5032307;28;20391;-68
2023/04/17 01:49:40;;;;;;;0.60;0.40;;;16.70;76.20;;;;;;5030997;28;20025;-68
2023/04/17 01:52:06;;;;;;;0.40;0.40;;;16.60;76.10;;;;;;5030814;28;20022;-68
2023/04/17 01:54:32;;;;;;;3.33;0.63;;;16.70;76.20;;;;;;5030949;28;20053;-68
2023/04/17 01:56:57;;;;;;;0.35;0.35;;;16.70;76.10;;;;;;5032099;28;20096;-68
2023/04/17 01:59:23;;;;;;;0.40;0.40;;;16.70;76.10;;;;;;5032246;28;20488;-68
2023/04/17 02:01:49;;;;;;;0.60;0.60;;;16.60;76.10;;;;;;5032139;28;20121;-68
2023/04/17 02:04:15;;;;;;;0.68;0.40;;;16.60;76.10;;;;;;5014362;28;20549;-68
2023/04/17 02:06:40;;;;;;;0.65;0.40;;;16.70;76.10;;;;;;5031975;28;20022;-68
2023/04/17 02:09:06;;;;;;;1.27;0.40;;;16.60;76.00;;;;;;5032031;28;20022;-68
2023/04/17 02:11:32;;;;;;;0.45;0.40;;;16.60;76.10;;;;;;5032168;28;20100;-68
2023/04/17 02:13:57;;;;;;;0.60;0.57;;;16.70;76.10;;;;;;5030681;28;20049;-68
2023/04/17 02:16:23;;;;;;;0.30;0.30;;;16.70;76.30;;;;;;4998138;28;20392;-68
2023/04/17 02:18:49;;;;;;;3.60;0.40;;;16.70;76.10;;;;;;5030990;28;20490;-68
2023/04/17 02:21:15;;;;;;;0.70;0.40;;;16.70;76.10;;;;;;5014526;28;20492;-68
2023/04/17 02:23:40;;;;;;;0.30;0.30;;;16.60;76.00;;;;;;5031839;28;20072;-68
2023/04/17 02:26:06;;;;;;;0.40;0.22;;;16.60;76.00;;;;;;5030744;28;20464;-68
2023/04/17 02:28:32;;;;;;;0.30;0.30;;;16.60;76.10;;;;;;5014180;28;20033;-68
2023/04/17 02:30:57;;;;;;;0.77;0.50;;;16.60;76.00;;;;;;5033385;28;20030;-68
2023/04/17 02:33:23;;;;;;;0.30;0.30;;;16.60;76.00;;;;;;5035425;28;20033;-68
2023/04/17 02:35:49;;;;;;;0.40;0.40;;;16.60;76.00;;;;;;5034519;28;20080;-68
2023/04/17 02:38:15;;;;;;;0.88;0.40;;;16.60;76.00;;;;;;5034344;28;20029;-68
2023/04/17 02:40:40;;;;;;;0.40;0.40;;;16.60;76.10;;;;;;5034347;28;20392;-68
2023/04/17 02:43:06;;;;;;;1.33;0.43;;;16.70;76.10;;;;;;5034971;28;20064;-68
2023/04/17 02:45:32;;;;;;;0.55;0.38;;;16.60;76.00;;;;;;5035162;28;20022;-68
2023/04/17 02:47:58;;;;;;;0.40;0.30;;;16.60;76.10;;;;;;5034010;28;20407;-68
2023/04/17 02:50:23;;;;;;;1.40;0.47;;;16.60;76.10;;;;;;5035265;28;20076;-68
2023/04/17 02:52:49;;;;;;;0.65;0.40;;;16.70;76.10;;;;;;5034078;28;20484;-68
2023/04/17 02:55:15;;;;;;;0.47;0.30;;;16.60;76.00;;;;;;5034927;28;20045;-68
2023/04/17 02:57:40;;;;;;;0.40;0.30;;;16.70;76.10;;;;;;5035166;28;20075;-68
2023/04/17 03:00:13;;;;;;;0.50;0.38;;;16.70;76.10;;;;;;5034862;28;20037;-68
2023/04/17 03:02:39;;;;;;;1.70;0.65;;;16.70;76.10;;;;;;5033738;28;20029;-68
2023/04/17 03:05:05;;;;;;;4.97;0.60;;;16.60;76.10;;;;;;5035004;28;20083;-68
2023/04/17 03:07:31;;;;;;;0.45;0.40;;;16.60;76.10;;;;;;5001255;28;20032;-68
2023/04/17 03:09:57;;;;;;;0.52;0.30;;;16.60;76.10;;;;;;5034871;28;20044;-68
2023/04/17 03:12:23;;;;;;;0.40;0.40;;;16.60;76.20;;;;;;5017378;28;20059;-68
2023/04/17 03:14:49;;;;;;;0.63;0.45;;;16.60;76.20;;;;;;5033682;28;20014;-68
2023/04/17 03:17:14;;;;;;;0.30;0.30;;;16.60;76.10;;;;;;5034586;28;20491;-68
2023/04/17 03:19:40;;;;;;;1.02;0.70;;;16.60;76.20;;;;;;5000940;28;20030;-68
2023/04/17 03:22:06;;;;;;;0.43;0.40;;;16.60;76.20;;;;;;5033506;28;20022;-68
2023/04/17 03:24:32;;;;;;;0.93;0.50;;;16.60;76.20;;;;;;5017166;28;20057;-68
2023/04/17 03:26:58;;;;;;;0.30;0.30;;;16.60;76.30;;;;;;5034677;28;20025;-68
2023/04/17 03:29:23;;;;;;;1.30;0.80;;;16.60;76.30;;;;;;5033018;28;20158;-68
2023/04/17 03:31:49;;;;;;;0.55;0.45;;;16.60;76.30;;;;;;5033278;28;20034;-68
2023/04/17 03:34:16;;;;;;;1.33;0.40;;;16.60;76.40;;;;;;5034421;28;20097;-68
2023/04/17 03:36:41;;;;;;;0.45;0.45;;;16.60;76.40;;;;;;5033168;28;20472;-68
2023/04/17 03:39:07;;;;;;;0.30;0.30;;;16.60;76.30;;;;;;5034144;28;20032;-68
2023/04/17 03:41:33;;;;;;;0.77;0.40;;;16.60;76.40;;;;;;5033596;28;20108;-68
2023/04/17 03:43:58;;;;;;;1.50;0.40;;;16.60;76.30;;;;;;5032392;28;20029;-68
2023/04/17 03:46:24;;;;;;;0.43;0.40;;;16.60;76.40;;;;;;5034151;28;20037;-68
2023/04/17 03:48:49;;;;;;;1.25;0.50;;;16.60;76.40;;;;;;5032972;28;20021;-68
2023/04/17 03:51:15;;;;;;;1.10;0.60;;;16.60;76.50;;;;;;5032833;28;20057;-68
2023/04/17 03:53:41;;;;;;;0.30;0.30;;;16.60;76.40;;;;;;5032828;28;20052;-68
2023/04/17 03:56:07;;;;;;;0.52;0.50;;;16.60;76.40;;;;;;5016365;28;20041;-68
2023/04/17 03:58:32;;;;;;;0.40;0.40;;;16.60;76.30;;;;;;5033704;28;20104;-68
2023/04/17 04:01:00;;;;;;;1.75;0.45;;;16.60;76.40;;;;;;5032916;28;20116;-68
2023/04/17 04:03:27;;;;;;;2.28;0.47;;;16.60;76.50;;;;;;5032753;28;20061;-68
2023/04/17 04:05:53;;;;;;;0.47;0.28;;;16.60;76.60;;;;;;5033873;28;20025;-68
2023/04/17 04:08:19;;;;;;;0.68;0.65;;;16.60;76.60;;;;;;5033747;28;20412;-68
2023/04/17 04:10:45;;;;;;;0.20;0.20;;;16.60;76.50;;;;;;5033558;28;20022;-68
2023/04/17 04:13:11;;;;;;;0.30;0.30;;;16.60;76.60;;;;;;5015634;28;20320;-68
2023/04/17 04:15:37;;;;;;;0.65;0.50;;;16.60;76.50;;;;;;5016366;28;20496;-68
2023/04/17 04:18:03;;;;;;;0.80;0.50;;;16.60;76.60;;;;;;5032386;28;20072;-68
2023/04/17 04:20:28;;;;;;;0.40;0.40;;;16.60;76.60;;;;;;5032272;28;20022;-68
2023/04/17 04:22:58;;;;;;;0.40;0.40;;;16.60;76.60;;;;;;5033516;28;20411;-68
2023/04/17 04:25:24;;;;;;;1.15;0.30;;;16.60;76.60;;;;;;5016510;28;20029;-68
2023/04/17 04:27:51;;;;;;;0.25;0.25;;;16.60;76.60;;;;;;5015690;28;20076;-68
2023/04/17 04:30:17;;;;;;;0.50;0.50;;;16.60;76.60;;;;;;5033271;28;20071;-68
2023/04/17 04:32:46;;;;;;;0.55;0.45;;;16.60;76.70;;;;;;5032222;28;20030;-68
2023/04/17 04:35:12;;;;;;;0.65;0.35;;;16.60;76.60;;;;;;5016036;28;20496;-68
2023/04/17 04:37:41;;;;;;;0.80;0.50;;;16.50;76.60;;;;;;5015717;28;20554;-68
2023/04/17 04:40:11;;;;;;;0.55;0.47;;;16.50;76.70;;;;;;5032076;28;20100;-68
2023/04/17 04:42:38;;;;;;;0.40;0.35;;;16.50;76.60;;;;;;5032691;28;20025;-68
2023/04/17 04:45:04;;;;;;;1.85;0.40;;;16.60;76.70;;;;;;5031782;28;20500;-68
2023/04/17 04:47:30;;;;;;;0.65;0.50;;;16.50;76.70;;;;;;5033181;28;20026;-68
2023/04/17 04:49:56;;;;;;;0.47;0.38;;;16.60;76.70;;;;;;5031742;28;20468;-68
2023/04/17 04:52:21;;;;;;;0.50;0.40;;;16.60;76.70;;;;;;5033023;28;20029;-68
2023/04/17 04:54:47;;;;;;;0.57;0.40;;;16.50;76.70;;;;;;5031275;28;20128;-68
2023/04/17 04:57:12;;;;;;;0.40;0.40;;;16.50;76.70;;;;;;5031350;28;20029;-68
2023/04/17 04:59:38;;;;;;;0.50;0.50;;;16.50;76.70;;;;;;5015313;28;20414;-68
2023/04/17 05:02:04;;;;;;;0.47;0.47;;;16.50;76.80;;;;;;5032664;28;20026;-68
2023/04/17 05:04:29;;;;;;;1.20;0.30;;;16.50;76.80;;;;;;5032597;28;20136;-68
2023/04/17 05:06:56;;;;;;;0.30;0.30;;;16.50;76.90;;;;;;5015367;28;20021;-68
2023/04/17 05:09:21;;;;;;;0.35;0.35;;;16.50;76.90;;;;;;5032785;28;20021;-68
2023/04/17 05:11:47;;;;;;;2.70;0.50;;;16.50;76.90;;;;;;5032854;28;20594;-68
2023/04/17 05:14:13;;;;;;;0.60;0.25;;;16.50;77.00;;;;;;5032705;28;20091;-68
2023/04/17 05:16:40;;;;;;;0.40;0.40;;;16.50;76.90;;;;;;5031312;28;20029;-68
2023/04/17 05:19:05;;;;;;;0.40;0.40;;;16.50;77.00;;;;;;5032613;28;20033;-68
2023/04/17 05:21:31;;;;;;;0.32;0.32;;;16.50;77.00;;;;;;5031268;28;20072;-68
2023/04/17 05:23:57;;;;;;;0.50;0.50;;;16.50;77.10;;;;;;5032483;28;20036;-68
2023/04/17 05:26:22;;;;;;;0.35;0.35;;;16.50;77.00;;;;;;5032282;28;20030;-68
2023/04/17 05:28:48;;;;;;;0.70;0.50;;;16.50;77.20;;;;;;5031392;28;20499;-68
2023/04/17 05:31:14;;;;;;;0.50;0.50;;;16.60;77.30;;;;;;5032223;28;20048;-68
2023/04/17 05:33:40;;;;;;;0.45;0.30;;;16.50;77.30;;;;;;5014931;28;20395;-68
2023/04/17 05:36:06;;;;;;;0.30;0.30;;;16.50;77.40;;;;;;5031353;28;20079;-68
2023/04/17 05:38:32;;;;;;;1.13;0.45;;;16.50;77.50;;;;;;5032268;28;20023;-68
2023/04/17 05:40:57;;;;;;;0.68;0.40;;;16.50;77.50;;;;;;5031152;28;20021;-68
2023/04/17 05:43:23;;;;;;;0.65;0.50;;;16.50;77.50;;;;;;5030612;28;20041;-68
2023/04/17 05:45:49;;;;;;;0.30;0.30;;;16.50;77.50;;;;;;5031068;28;20108;-68
2023/04/17 05:48:15;;;;;;;1.25;0.38;;;16.50;77.50;;;;;;5032352;28;20484;-68
2023/04/17 05:50:40;;;;;;;0.40;0.40;;;16.50;77.50;;;;;;5032186;28;20024;-68
2023/04/17 05:53:06;;;;;;;0.50;0.50;;;16.50;77.60;;;;;;5014549;28;20069;-68
2023/04/17 05:55:32;;;;;;;0.52;0.52;;;16.50;77.60;;;;;;5030449;28;20504;-67
2023/04/17 05:57:57;;;;;;;0.40;0.40;;;16.50;77.30;;;;;;5032263;28;20026;-67
2023/04/17 06:00:23;;;;;;;0.50;0.50;;;16.50;76.50;;;;;;5031041;28;20496;-67
2023/04/17 06:02:49;;;;;;;1.95;0.50;;;16.50;75.40;;;;;;5032250;28;20041;-67
2023/04/17 06:05:16;;;;;;;1.23;0.60;;;16.50;75.10;;;;;;5032515;28;20571;-67
2023/04/17 06:07:42;;;;;;;0.57;0.57;;;16.50;74.90;;;;;;5036258;28;20108;-67
2023/04/17 06:10:08;;;;;;;0.60;0.40;;;16.50;74.70;;;;;;5034623;28;20361;-67
2023/04/17 06:12:34;;;;;;;0.52;0.50;;;16.50;74.60;;;;;;5018424;28;20036;-67
2023/04/17 06:15:00;;;;;;;2.15;0.60;;;16.50;74.40;;;;;;5034821;28;20100;-67
2023/04/17 06:17:26;;;;;;;2.25;0.50;;;16.50;74.30;;;;;;5034653;28;20112;-67
2023/04/17 06:19:51;;;;;;;0.57;0.57;;;16.50;74.20;;;;;;5034686;28;20018;-67
2023/04/17 06:22:17;;;;;;;0.50;0.47;;;16.50;74.10;;;;;;5035894;28;20025;-67
2023/04/17 06:24:42;;;;;;;0.60;0.60;;;16.50;74.00;;;;;;5034428;28;20038;-67
2023/04/17 06:27:08;;;;;;;0.93;0.65;;;16.50;73.90;;;;;;5036127;28;20541;-68
2023/04/17 06:29:34;;;;;;;0.40;0.40;;;16.50;73.80;;;;;;5035102;28;20021;-67
2023/04/17 06:31:59;;;;;;;0.50;0.50;;;16.40;73.60;;;;;;5034836;28;20022;-67
2023/04/17 06:34:25;;;;;;;1.30;0.50;;;16.50;73.70;;;;;;5034791;28;20026;-67
2023/04/17 06:36:52;;;;;;;1.70;0.60;;;16.50;73.70;;;;;;5036087;28;20079;-67
2023/04/17 06:39:17;;;;;;;0.57;0.50;;;16.40;73.60;;;;;;5035853;28;20514;-67
2023/04/17 06:41:43;;;;;;;2.00;0.80;;;16.40;73.60;;;;;;5018174;28;20025;-67
2023/04/17 06:44:09;;;;;;;0.95;0.75;;;16.40;73.50;;;;;;5035832;28;20021;-68
2023/04/17 06:46:34;;;;;;;1.95;0.65;;;16.40;73.50;;;;;;5035402;28;20281;-67
2023/04/17 06:49:01;;;;;;;1.50;0.80;;;16.40;73.60;;;;;;5035064;28;20032;-68
2023/04/17 06:51:28;;;;;;;0.90;0.50;;;16.40;74.20;;;;;;5033625;28;20029;-68
2023/04/17 06:53:53;;;;;;;3.03;0.80;;;16.50;74.70;;;;;;5032469;28;20520;-68
2023/04/17 06:56:19;;;;;;;1.77;0.80;;;16.40;74.90;;;;;;5033951;28;20068;-68
2023/04/17 06:58:45;;;;;;;1.40;0.85;;;16.40;75.00;;;;;;5032645;28;20028;-68
2023/04/17 07:01:14;;;;;;;1.73;0.73;;;16.50;75.20;;;;;;5032296;28;20029;-68
2023/04/17 07:03:40;;;;;;;1.23;0.70;;;16.40;75.20;;;;;;5033840;28;20029;-68
2023/04/17 07:06:06;;;;;;;3.40;0.77;;;16.50;75.20;;;;;;5017159;28;20116;-67
2023/04/17 07:08:31;;;;;;;2.63;1.00;;;16.40;76.20;;;;;;5033329;28;20030;-67
2023/04/17 07:10:57;;;;;;;3.85;1.13;;;16.40;75.20;;;;;;5033075;28;20082;-67
2023/04/17 07:13:23;;;;;;;1.77;0.63;;;16.50;75.20;;;;;;5034112;28;20408;-67
2023/04/17 07:15:55;;;;;;;2.45;0.73;;;16.50;75.10;;;;;;5034706;28;20026;-67
2023/04/17 07:18:21;;;;;;;3.20;0.68;;;16.50;75.10;;;;;;5033593;28;20075;-68
2023/04/17 07:20:47;;;;;;;1.70;0.90;;;16.50;75.00;;;;;;5017128;28;20038;-68
2023/04/17 07:23:13;;;;;;;3.53;0.90;;;16.40;74.90;;;;;;5033175;28;20492;-68
2023/04/17 07:25:39;;;;;;;3.65;0.75;;;16.40;74.90;;;;;;5033596;28;20037;-68
2023/04/17 07:28:04;;;;;;;2.58;0.80;;;16.40;74.80;;;;;;5034573;28;20403;-68
2023/04/17 07:30:30;;;;;;;1.52;0.90;;;16.40;74.70;;;;;;5033149;28;20018;-68
2023/04/17 07:32:55;;;;;;;1.08;0.77;;;16.40;74.70;;;;;;5017053;28;20029;-68
2023/04/17 07:35:21;;;;;;;3.33;0.65;;;16.40;74.70;;;;;;5034224;28;20036;-68
2023/04/17 07:37:47;;;;;;;1.02;0.70;;;16.40;74.60;;;;;;5032805;28;20117;-68
2023/04/17 07:40:13;;;;;;;2.67;1.10;;;16.50;74.70;;;;;;5034473;28;20104;-68
2023/04/17 07:42:39;;;;;;;0.80;0.80;;;16.40;74.60;;;;;;5033966;28;20025;-68
2023/04/17 07:45:05;;;;;;;1.58;0.85;;;16.40;74.50;;;;;;5034356;28;20231;-68
2023/04/17 07:47:31;;;;;;;1.77;0.70;;;16.40;74.50;;;;;;5032938;28;20441;-68
2023/04/17 07:49:56;;;;;;;1.38;0.98;;;16.40;74.50;;;;;;5032741;28;20064;-68
2023/04/17 07:52:22;;;;;;;2.63;0.93;;;16.40;74.50;;;;;;5034048;28;20057;-68
2023/04/17 07:54:48;;;;;;;2.40;0.90;;;16.40;74.50;;;;;;5033806;28;20060;-68
2023/04/17 07:57:14;;;;;;;1.67;0.68;;;16.40;74.50;;;;;;5033971;28;20032;-67
2023/04/17 07:59:40;;;;;;;3.15;0.80;;;16.40;74.40;;;;;;5032878;28;20053;-67
2023/04/17 08:02:06;;;;;;;0.98;0.80;;;16.40;74.40;;;;;;5032778;28;20445;-68
2023/04/17 08:04:32;;;;;;;1.58;0.80;;;16.40;74.40;;;;;;5032482;28;20491;-68
2023/04/17 08:06:58;;;;;;;1.40;0.80;;;16.40;74.40;;;;;;5033727;28;20017;-68
2023/04/17 08:09:23;;;;;;;1.10;0.88;;;16.40;74.40;;;;;;5032469;28;20030;-68
2023/04/17 08:11:49;;;;;;;1.00;0.70;;;16.40;74.40;;;;;;5033569;28;20053;-68
2023/04/17 08:14:16;;;;;;;0.90;0.68;;;16.40;74.40;;;;;;5033829;28;20034;-68
2023/04/17 08:16:42;;;;;;;1.20;0.88;;;16.40;74.40;;;;;;5032302;28;20013;-68
2023/04/17 08:19:07;;;;;;;1.35;0.80;;;16.40;74.50;;;;;;5032107;28;20103;-68
2023/04/17 08:21:33;;;;;;;1.05;0.70;;;16.40;74.40;;;;;;5032381;28;20049;-68
2023/04/17 08:23:59;;;;;;;0.77;0.68;;;16.40;74.40;;;;;;5033367;28;20113;-68
2023/04/17 08:26:24;;;;;;;1.33;1.00;;;16.40;74.40;;;;;;5033617;28;20028;-68
2023/04/17 08:28:52;;;;;;;1.38;0.80;;;16.40;74.50;;;;;;5032813;28;20025;-68
2023/04/17 08:31:18;;;;;;;0.85;0.70;;;16.40;74.40;;;;;;5032282;28;20025;-68
2023/04/17 08:33:43;;;;;;;1.67;0.80;;;16.40;74.40;;;;;;5033025;28;20041;-68
2023/04/17 08:36:09;;;;;;;1.23;0.57;;;16.40;74.40;;;;;;5031953;28;20029;-68
2023/04/17 08:38:36;;;;;;;0.77;0.60;;;16.40;74.50;;;;;;5015629;28;20029;-68
2023/04/17 08:41:07;;;;;;;0.70;0.70;;;16.40;74.60;;;;;;5033517;28;20033;-68
2023/04/17 08:43:35;;;;;;;0.80;0.73;;;16.40;74.50;;;;;;5031725;28;20033;-68
2023/04/17 08:46:02;;;;;;;1.58;0.98;;;16.40;74.50;;;;;;5032010;28;20020;-68
2023/04/17 08:48:28;;;;;;;1.63;0.70;;;16.40;74.60;;;;;;5015116;28;20030;-68
2023/04/17 08:50:54;;;;;;;0.80;0.77;;;16.40;74.50;;;;;;5031843;28;20104;-68
2023/04/17 08:53:19;;;;;;;0.70;0.70;;;16.40;74.50;;;;;;5031719;28;20108;-68
2023/04/17 08:55:46;;;;;;;0.90;0.90;;;16.40;74.50;;;;;;5032730;28;20430;-68
2023/04/17 08:58:12;;;;;;;1.05;0.77;;;16.40;74.50;;;;;;5031950;28;20029;-68
2023/04/17 09:00:46;;;;;;;0.90;0.82;;;16.40;74.50;;;;;;5031465;28;20021;-68
2023/04/17 09:03:12;;;;;;;2.05;0.88;;;16.40;74.50;;;;;;5032571;28;20388;-68
2023/04/17 09:05:41;;;;;;;0.65;0.65;;;16.40;74.50;;;;;;5032738;28;20103;-68
2023/04/17 09:08:06;;;;;;;0.82;0.80;;;16.40;74.50;;;;;;5031526;28;20010;-68
2023/04/17 09:10:40;;;;;;;1.00;0.80;;;16.40;74.50;;;;;;5032593;28;20021;-68
2023/04/17 09:13:06;;;;;;;1.60;1.48;;;16.40;74.50;;;;;;5031516;28;20033;-68
2023/04/17 09:15:35;;;;;;;0.60;0.60;;;16.40;74.50;;;;;;5032681;28;20030;-68
2023/04/17 09:18:01;;;;;;;1.95;0.77;;;16.40;74.50;;;;;;5031281;28;20029;-68
2023/04/17 09:20:27;;;;;;;1.52;0.80;;;16.40;74.50;;;;;;5031469;28;20027;-68
2023/04/17 09:23:02;;;;;;;1.08;0.93;;;16.40;74.50;;;;;;5031206;28;20025;-68
2023/04/17 09:25:28;;;;;;;1.10;0.90;;;16.40;74.50;;;;;;4998546;28;20551;-68
2023/04/17 09:28:00;;;;;;;1.15;0.63;;;16.40;74.50;;;;;;5031166;28;20484;-68
2023/04/17 09:30:26;;;;;;;0.80;0.77;;;16.40;74.50;;;;;;5031330;28;20498;-68
2023/04/17 09:33:02;;;;;;;2.25;0.70;;;16.40;74.50;;;;;;5032234;28;20025;-68
2023/04/17 09:35:28;;;;;;;0.88;0.70;;;16.40;74.50;;;;;;5031214;28;20017;-68
2023/04/17 09:37:55;;;;;;;0.85;0.70;;;16.40;74.50;;;;;;5030901;28;20018;-68
2023/04/17 09:40:21;;;;;;;0.50;0.50;;;16.40;74.50;;;;;;5031546;28;20025;-68
2023/04/17 09:42:56;;;;;;;1.02;0.70;;;16.40;74.50;;;;;;5030775;28;20091;-68
2023/04/17 09:45:23;;;;;;;1.65;0.90;;;16.40;74.50;;;;;;5032430;28;20025;-68
2023/04/17 09:47:54;;;;;;;0.68;0.68;;;16.40;74.50;;;;;;5031931;28;20014;-68
2023/04/17 09:50:20;;;;;;;1.05;0.98;;;16.40;74.50;;;;;;5031095;28;20083;-68
2023/04/17 09:52:49;;;;;;;0.60;0.60;;;16.40;74.50;;;;;;5030839;28;20064;-68
2023/04/17 09:55:15;;;;;;;1.60;0.80;;;16.40;74.50;;;;;;5030781;28;20029;-68
2023/04/17 09:57:40;;;;;;;2.45;0.88;;;16.40;74.40;;;;;;5030977;28;20017;-68
2023/04/17 10:00:12;;;;;;;0.93;0.60;;;16.40;74.50;;;;;;5031945;28;20036;-68
2023/04/17 10:02:37;;;;;;;0.75;0.75;;;16.40;74.50;;;;;;5030916;28;20026;-68
2023/04/17 10:05:07;;;;;;;1.48;0.70;;;16.50;74.50;;;;;;5030987;28;20033;-68
2023/04/17 10:07:35;;;;;;;0.57;0.57;;;16.40;74.40;;;;;;5032072;28;20021;-68
2023/04/17 10:10:03;;;;;;;0.60;0.60;;;16.40;75.00;;;;;;5014839;28;20021;-68
2023/04/17 10:12:28;;;;;;;0.63;0.50;;;16.40;74.40;;;;;;5030895;28;20024;-68
2023/04/17 10:14:54;;;;;;;0.40;0.40;;;16.40;74.40;;;;;;5030618;28;20033;-68
2023/04/17 10:17:36;;;;;;;1.38;0.70;;;16.50;74.50;;;;;;5014524;28;20091;-68
2023/04/17 10:20:16;;;;;;;0.80;0.60;;;16.40;74.40;;;;;;5030871;28;20025;-68
2023/04/17 10:22:43;;;;;;;0.60;0.60;;;16.40;74.40;;;;;;5031779;28;20507;-68
2023/04/17 10:25:11;;;;;;;1.30;0.60;;;16.50;74.40;;;;;;5030617;28;20022;-68
2023/04/17 10:27:40;;;;;;;0.57;0.40;;;16.50;74.40;;;;;;5031889;28;20080;-68
2023/04/17 10:30:15;;;;;;;0.77;0.70;;;16.50;74.40;;;;;;5031758;28;20048;-68
2023/04/17 10:32:43;;;;;;;0.57;0.57;;;16.40;74.30;;;;;;5031729;28;20372;-68
2023/04/17 10:35:14;;;;;;;0.60;0.60;;;16.50;74.40;;;;;;5031957;28;20026;-68
2023/04/17 10:37:49;;;;;;;0.45;0.45;;;16.50;74.40;;;;;;5031682;28;20543;-68
2023/04/17 10:40:25;;;;;;;0.50;0.50;;;16.50;74.50;;;;;;5031747;28;20029;-68
2023/04/17 10:43:25;;;;;;;0.82;0.43;;;16.40;74.40;;;;;;5031508;28;20029;-68
2023/04/17 10:45:58;;;;;;;0.60;0.52;;;16.40;74.40;;;;;;5031645;28;20025;-67
2023/04/17 10:48:37;;;;;;;1.38;0.60;;;16.50;74.40;;;;;;5030976;28;20057;-68
2023/04/17 10:51:22;;;;;;;3.50;3.20;;;16.40;74.40;;;;;;5031324;28;20472;-68
2023/04/17 10:53:48;;;;;;;3.60;3.30;;;16.40;74.40;;;;;;5035274;28;20032;-68
2023/04/17 10:56:45;;;;;;;4.15;3.80;;;16.50;74.80;;;;;;5034778;28;20476;-68
2023/04/17 10:59:11;;;;;;;5.20;4.70;;;16.50;75.50;;;;;;5035673;28;20022;-68
2023/04/17 11:01:38;;;;;;;12.88;5.85;;;16.50;76.40;;;;;;5034658;28;20104;-68
2023/04/17 11:04:04;;;;;;;64.75;36.92;;;16.60;77.50;;;;;;5035494;28;20029;-68
2023/04/17 11:06:31;;;;;;;95.47;57.50;;;16.60;78.40;;;;;;5051022;28;20021;-68
2023/04/17 11:08:58;;;;;;;86.13;53.83;;;16.60;78.90;;;;;;5034189;28;20026;-68
2023/04/17 11:11:24;;;;;;;63.65;43.35;;;16.60;79.30;;;;;;5035530;28;20116;-68
2023/04/17 11:13:50;;;;;;;62.72;37.90;;;16.70;79.20;;;;;;5034008;28;20028;-68
2023/04/17 11:16:16;;;;;;;64.20;36.95;;;16.70;79.00;;;;;;5035356;28;20415;-68
2023/04/17 11:18:44;;;;;;;59.38;35.10;;;16.70;78.60;;;;;;5034064;28;20036;-68
2023/04/17 11:21:11;;;;;;;59.78;35.42;;;16.70;78.20;;;;;;5017635;28;20036;-68
2023/04/17 11:23:37;;;;;;;50.38;31.50;;;16.70;78.20;;;;;;5034818;28;20025;-68
2023/04/17 11:26:03;;;;;;;43.20;30.95;;;16.70;77.80;;;;;;5034559;28;20051;-68
2023/04/17 11:28:29;;;;;;;41.85;30.27;;;16.70;77.60;;;;;;5033682;28;20018;-68
2023/04/17 11:30:55;;;;;;;41.83;29.02;;;16.70;77.30;;;;;;5034385;28;20373;-68
2023/04/17 11:33:20;;;;;;;41.45;28.67;;;16.70;77.10;;;;;;5034404;28;20029;-68
2023/04/17 11:35:46;;;;;;;40.00;25.95;;;16.70;77.00;;;;;;5032983;28;20084;-68
2023/04/17 11:38:21;;;;;;;40.33;26.80;;;16.70;76.80;;;;;;5033219;28;20025;-68
2023/04/17 11:40:48;;;;;;;38.70;25.92;;;16.70;76.60;;;;;;5033174;28;20068;-68
2023/04/17 11:43:14;;;;;;;36.90;25.52;;;16.70;76.50;;;;;;5033798;28;20079;-68
2023/04/17 11:45:41;;;;;;;34.70;24.35;;;16.70;76.30;;;;;;5033067;28;20028;-68
2023/04/17 11:48:11;;;;;;;33.05;23.33;;;16.70;76.10;;;;;;5033951;28;20022;-68
2023/04/17 11:50:37;;;;;;;30.48;20.90;;;16.70;76.90;;;;;;5049705;28;20052;-68
2023/04/17 11:53:03;;;;;;;33.60;21.88;;;16.70;75.70;;;;;;5034188;28;20021;-68
2023/04/17 11:55:30;;;;;;;30.52;21.50;;;16.70;75.50;;;;;;5034190;28;20414;-68
2023/04/17 11:57:57;;;;;;;31.33;22.58;;;16.70;75.40;;;;;;5033693;28;20392;-68
2023/04/17 12:00:27;;;;;;;27.77;20.88;;;16.70;75.40;;;;;;5033016;28;20521;-68
2023/04/17 12:02:54;;;;;;;29.13;20.60;;;16.70;75.30;;;;;;5032946;28;20022;-68
2023/04/17 12:05:20;;;;;;;28.88;20.33;;;16.70;75.10;;;;;;5034043;28;20017;-68
2023/04/17 12:07:46;;;;;;;26.55;18.80;;;16.70;75.00;;;;;;5032600;28;20024;-68
2023/04/17 12:10:11;;;;;;;26.08;17.35;;;16.70;74.80;;;;;;5032736;28;20025;-68
2023/04/17 12:12:37;;;;;;;22.38;17.67;;;16.70;74.70;;;;;;5033746;28;20022;-68
2023/04/17 12:15:03;;;;;;;24.35;16.52;;;16.80;74.60;;;;;;5033637;28;20080;-68
2023/04/17 12:17:29;;;;;;;21.05;15.77;;;16.70;74.40;;;;;;5033705;28;20022;-68
2023/04/17 12:19:55;;;;;;;21.92;15.75;;;16.80;74.40;;;;;;5033499;28;20021;-68
2023/04/17 12:22:20;;;;;;;23.08;15.75;;;16.80;74.50;;;;;;5033746;28;20025;-68
2023/04/17 12:24:46;;;;;;;19.52;14.88;;;16.80;74.40;;;;;;5032153;28;20523;-68
2023/04/17 12:27:12;;;;;;;22.58;15.00;;;16.80;74.30;;;;;;5033325;28;20038;-68
2023/04/17 12:29:37;;;;;;;20.85;14.32;;;16.80;74.30;;;;;;5033568;28;20030;-68
2023/04/17 12:32:03;;;;;;;18.45;13.98;;;16.80;74.20;;;;;;5033275;28;20017;-68
2023/04/17 12:34:29;;;;;;;20.67;12.95;;;16.80;74.00;;;;;;5033352;28;20025;-68
2023/04/17 12:36:54;;;;;;;16.92;12.90;;;16.80;73.90;;;;;;5033351;28;20079;-68
2023/04/17 12:39:20;;;;;;;23.50;13.32;;;16.80;73.90;;;;;;5033265;28;20088;-68